sensor_id;sensor_type;location;lat;lon;timestamp;P1;durP1;ratioP1;P2;durP2;ratioP2
37655;SDS011;23498;50.958;3.124;2022-10-31T00:01:17;10.02;;;5.75;;
37655;SDS011;23498;50.958;3.124;2022-10-31T00:03:43;10.07;;;5.68;;
37655;SDS011;23498;50.958;3.124;2022-10-31T00:06:09;10.57;;;5.43;;
37655;SDS011;23498;50.958;3.124;2022-10-31T00:08:35;10.13;;;5.65;;
37655;SDS011;23498;50.958;3.124;2022-10-31T00:11:01;11.63;;;6.22;;
37655;SDS011;23498;50.958;3.124;2022-10-31T00:13:27;9.57;;;6.28;;
37655;SDS011;23498;50.958;3.124;2022-10-31T00:15:53;10.80;;;6.20;;
37655;SDS011;23498;50.958;3.124;2022-10-31T00:18:19;8.88;;;5.90;;
37655;SDS011;23498;50.958;3.124;2022-10-31T00:20:45;10.43;;;5.80;;
37655;SDS011;23498;50.958;3.124;2022-10-31T00:23:11;11.73;;;6.32;;
37655;SDS011;23498;50.958;3.124;2022-10-31T00:25:37;10.65;;;6.28;;
37655;SDS011;23498;50.958;3.124;2022-10-31T00:28:04;10.20;;;6.03;;
37655;SDS011;23498;50.958;3.124;2022-10-31T00:30:30;9.35;;;6.18;;
37655;SDS011;23498;50.958;3.124;2022-10-31T00:32:56;10.23;;;5.90;;
37655;SDS011;23498;50.958;3.124;2022-10-31T00:35:22;10.48;;;6.20;;
37655;SDS011;23498;50.958;3.124;2022-10-31T00:37:48;10.75;;;7.13;;
37655;SDS011;23498;50.958;3.124;2022-10-31T00:40:14;8.93;;;5.85;;
37655;SDS011;23498;50.958;3.124;2022-10-31T00:42:40;9.98;;;5.95;;
37655;SDS011;23498;50.958;3.124;2022-10-31T00:45:07;9.02;;;6.15;;
37655;SDS011;23498;50.958;3.124;2022-10-31T00:47:33;9.57;;;5.57;;
37655;SDS011;23498;50.958;3.124;2022-10-31T00:49:59;10.23;;;5.72;;
37655;SDS011;23498;50.958;3.124;2022-10-31T00:52:25;10.48;;;6.50;;
37655;SDS011;23498;50.958;3.124;2022-10-31T00:54:51;10.57;;;6.30;;
37655;SDS011;23498;50.958;3.124;2022-10-31T00:57:17;9.77;;;5.63;;
37655;SDS011;23498;50.958;3.124;2022-10-31T00:59:43;10.82;;;5.80;;
37655;SDS011;23498;50.958;3.124;2022-10-31T01:02:09;9.75;;;6.35;;
37655;SDS011;23498;50.958;3.124;2022-10-31T01:04:35;12.90;;;6.53;;
37655;SDS011;23498;50.958;3.124;2022-10-31T01:07:01;9.00;;;5.97;;
37655;SDS011;23498;50.958;3.124;2022-10-31T01:09:28;10.60;;;6.43;;
37655;SDS011;23498;50.958;3.124;2022-10-31T01:11:54;10.43;;;6.10;;
37655;SDS011;23498;50.958;3.124;2022-10-31T01:14:20;10.07;;;6.82;;
37655;SDS011;23498;50.958;3.124;2022-10-31T01:16:46;10.18;;;6.68;;
37655;SDS011;23498;50.958;3.124;2022-10-31T01:19:12;11.73;;;6.95;;
37655;SDS011;23498;50.958;3.124;2022-10-31T01:21:38;11.07;;;6.18;;
37655;SDS011;23498;50.958;3.124;2022-10-31T01:24:04;11.13;;;6.65;;
37655;SDS011;23498;50.958;3.124;2022-10-31T01:26:31;9.75;;;6.05;;
37655;SDS011;23498;50.958;3.124;2022-10-31T01:28:59;9.88;;;6.40;;
37655;SDS011;23498;50.958;3.124;2022-10-31T01:31:27;9.50;;;5.80;;
37655;SDS011;23498;50.958;3.124;2022-10-31T01:33:54;10.02;;;5.90;;
37655;SDS011;23498;50.958;3.124;2022-10-31T01:36:22;10.52;;;6.40;;
37655;SDS011;23498;50.958;3.124;2022-10-31T01:38:48;13.07;;;6.95;;
37655;SDS011;23498;50.958;3.124;2022-10-31T01:41:17;12.50;;;7.13;;
37655;SDS011;23498;50.958;3.124;2022-10-31T01:46:09;11.07;;;6.70;;
37655;SDS011;23498;50.958;3.124;2022-10-31T01:48:36;12.90;;;6.70;;
37655;SDS011;23498;50.958;3.124;2022-10-31T01:51:02;11.65;;;6.70;;
37655;SDS011;23498;50.958;3.124;2022-10-31T01:53:29;11.73;;;6.53;;
37655;SDS011;23498;50.958;3.124;2022-10-31T01:55:56;12.27;;;6.88;;
37655;SDS011;23498;50.958;3.124;2022-10-31T01:58:22;10.68;;;6.55;;
37655;SDS011;23498;50.958;3.124;2022-10-31T02:00:51;12.90;;;6.57;;
37655;SDS011;23498;50.958;3.124;2022-10-31T02:03:19;11.27;;;6.50;;
37655;SDS011;23498;50.958;3.124;2022-10-31T02:05:46;10.77;;;6.30;;
37655;SDS011;23498;50.958;3.124;2022-10-31T02:08:31;9.77;;;6.40;;
37655;SDS011;23498;50.958;3.124;2022-10-31T02:10:58;10.60;;;6.10;;
37655;SDS011;23498;50.958;3.124;2022-10-31T02:13:25;9.55;;;6.03;;
37655;SDS011;23498;50.958;3.124;2022-10-31T02:15:52;11.48;;;6.80;;
37655;SDS011;23498;50.958;3.124;2022-10-31T02:18:18;11.23;;;7.05;;
37655;SDS011;23498;50.958;3.124;2022-10-31T02:20:52;14.65;;;7.57;;
37655;SDS011;23498;50.958;3.124;2022-10-31T02:25:51;11.75;;;7.40;;
37655;SDS011;23498;50.958;3.124;2022-10-31T02:38:45;11.60;;;6.63;;
37655;SDS011;23498;50.958;3.124;2022-10-31T02:41:17;11.35;;;7.13;;
37655;SDS011;23498;50.958;3.124;2022-10-31T02:46:18;13.57;;;7.55;;
37655;SDS011;23498;50.958;3.124;2022-10-31T02:48:45;11.63;;;7.10;;
37655;SDS011;23498;50.958;3.124;2022-10-31T02:51:12;12.20;;;7.47;;
37655;SDS011;23498;50.958;3.124;2022-10-31T02:53:38;13.07;;;7.30;;
37655;SDS011;23498;50.958;3.124;2022-10-31T02:56:12;11.88;;;6.75;;
37655;SDS011;23498;50.958;3.124;2022-10-31T02:58:40;9.60;;;6.20;;
37655;SDS011;23498;50.958;3.124;2022-10-31T03:06:35;11.60;;;7.35;;
37655;SDS011;23498;50.958;3.124;2022-10-31T03:09:13;12.82;;;7.95;;
37655;SDS011;23498;50.958;3.124;2022-10-31T03:12:14;12.70;;;7.70;;
37655;SDS011;23498;50.958;3.124;2022-10-31T03:16:59;15.07;;;9.00;;
37655;SDS011;23498;50.958;3.124;2022-10-31T03:19:40;12.95;;;9.20;;
37655;SDS011;23498;50.958;3.124;2022-10-31T03:22:10;13.20;;;9.07;;
37655;SDS011;23498;50.958;3.124;2022-10-31T03:24:38;18.80;;;10.68;;
37655;SDS011;23498;50.958;3.124;2022-10-31T03:27:05;18.55;;;10.85;;
37655;SDS011;23498;50.958;3.124;2022-10-31T03:29:33;17.13;;;9.85;;
37655;SDS011;23498;50.958;3.124;2022-10-31T03:32:01;14.38;;;9.55;;
37655;SDS011;23498;50.958;3.124;2022-10-31T03:34:29;14.68;;;9.85;;
37655;SDS011;23498;50.958;3.124;2022-10-31T03:36:56;16.85;;;10.27;;
37655;SDS011;23498;50.958;3.124;2022-10-31T03:39:22;14.88;;;9.60;;
37655;SDS011;23498;50.958;3.124;2022-10-31T03:44:42;15.68;;;10.73;;
37655;SDS011;23498;50.958;3.124;2022-10-31T03:47:10;15.93;;;11.50;;
37655;SDS011;23498;50.958;3.124;2022-10-31T03:49:36;17.48;;;11.45;;
37655;SDS011;23498;50.958;3.124;2022-10-31T03:52:05;16.60;;;10.23;;
37655;SDS011;23498;50.958;3.124;2022-10-31T03:54:40;17.60;;;10.27;;
37655;SDS011;23498;50.958;3.124;2022-10-31T03:59:36;16.15;;;10.23;;
37655;SDS011;23498;50.958;3.124;2022-10-31T04:02:06;15.48;;;10.68;;
37655;SDS011;23498;50.958;3.124;2022-10-31T04:04:33;15.73;;;10.63;;
37655;SDS011;23498;50.958;3.124;2022-10-31T04:07:00;18.33;;;10.23;;
37655;SDS011;23498;50.958;3.124;2022-10-31T04:09:27;15.35;;;9.35;;
37655;SDS011;23498;50.958;3.124;2022-10-31T04:11:54;14.95;;;9.85;;
37655;SDS011;23498;50.958;3.124;2022-10-31T04:14:23;14.00;;;10.10;;
37655;SDS011;23498;50.958;3.124;2022-10-31T04:16:49;13.75;;;9.85;;
37655;SDS011;23498;50.958;3.124;2022-10-31T04:19:15;16.45;;;10.65;;
37655;SDS011;23498;50.958;3.124;2022-10-31T04:21:41;15.60;;;10.25;;
37655;SDS011;23498;50.958;3.124;2022-10-31T04:24:10;14.13;;;9.70;;
37655;SDS011;23498;50.958;3.124;2022-10-31T04:26:36;14.68;;;9.75;;
37655;SDS011;23498;50.958;3.124;2022-10-31T04:29:02;15.38;;;8.68;;
37655;SDS011;23498;50.958;3.124;2022-10-31T04:31:28;19.73;;;9.35;;
37655;SDS011;23498;50.958;3.124;2022-10-31T04:33:54;12.85;;;8.63;;
37655;SDS011;23498;50.958;3.124;2022-10-31T04:36:20;20.33;;;9.18;;
37655;SDS011;23498;50.958;3.124;2022-10-31T04:38:46;12.93;;;8.68;;
37655;SDS011;23498;50.958;3.124;2022-10-31T04:41:12;13.35;;;8.27;;
37655;SDS011;23498;50.958;3.124;2022-10-31T04:43:38;15.70;;;8.90;;
37655;SDS011;23498;50.958;3.124;2022-10-31T04:46:04;13.48;;;8.30;;
37655;SDS011;23498;50.958;3.124;2022-10-31T04:48:30;14.45;;;9.35;;
37655;SDS011;23498;50.958;3.124;2022-10-31T04:51:00;14.25;;;9.32;;
37655;SDS011;23498;50.958;3.124;2022-10-31T04:53:26;12.77;;;8.30;;
37655;SDS011;23498;50.958;3.124;2022-10-31T04:55:52;15.88;;;9.32;;
37655;SDS011;23498;50.958;3.124;2022-10-31T04:58:18;13.73;;;9.23;;
37655;SDS011;23498;50.958;3.124;2022-10-31T05:00:44;16.05;;;8.85;;
37655;SDS011;23498;50.958;3.124;2022-10-31T05:03:10;12.25;;;8.10;;
37655;SDS011;23498;50.958;3.124;2022-10-31T05:05:36;11.65;;;8.05;;
37655;SDS011;23498;50.958;3.124;2022-10-31T05:08:02;14.25;;;7.68;;
37655;SDS011;23498;50.958;3.124;2022-10-31T05:10:29;13.07;;;7.85;;
37655;SDS011;23498;50.958;3.124;2022-10-31T05:12:56;12.57;;;8.07;;
37655;SDS011;23498;50.958;3.124;2022-10-31T05:15:23;14.40;;;8.52;;
37655;SDS011;23498;50.958;3.124;2022-10-31T05:17:49;12.43;;;7.70;;
37655;SDS011;23498;50.958;3.124;2022-10-31T05:20:16;14.23;;;7.63;;
37655;SDS011;23498;50.958;3.124;2022-10-31T05:22:46;13.25;;;8.07;;
37655;SDS011;23498;50.958;3.124;2022-10-31T05:25:13;13.73;;;8.13;;
37655;SDS011;23498;50.958;3.124;2022-10-31T05:27:40;11.65;;;7.97;;
37655;SDS011;23498;50.958;3.124;2022-10-31T05:30:06;17.33;;;8.60;;
37655;SDS011;23498;50.958;3.124;2022-10-31T05:32:36;15.73;;;8.55;;
37655;SDS011;23498;50.958;3.124;2022-10-31T05:35:02;13.60;;;9.02;;
37655;SDS011;23498;50.958;3.124;2022-10-31T05:37:28;14.75;;;8.50;;
37655;SDS011;23498;50.958;3.124;2022-10-31T05:39:54;15.38;;;9.07;;
37655;SDS011;23498;50.958;3.124;2022-10-31T05:42:20;14.20;;;8.80;;
37655;SDS011;23498;50.958;3.124;2022-10-31T05:44:46;13.23;;;8.68;;
37655;SDS011;23498;50.958;3.124;2022-10-31T05:47:12;13.75;;;8.50;;
37655;SDS011;23498;50.958;3.124;2022-10-31T05:49:38;15.77;;;9.35;;
37655;SDS011;23498;50.958;3.124;2022-10-31T05:52:04;16.77;;;9.88;;
37655;SDS011;23498;50.958;3.124;2022-10-31T05:54:30;16.08;;;9.50;;
37655;SDS011;23498;50.958;3.124;2022-10-31T05:56:56;14.55;;;8.80;;
37655;SDS011;23498;50.958;3.124;2022-10-31T05:59:22;14.30;;;8.95;;
37655;SDS011;23498;50.958;3.124;2022-10-31T06:01:48;14.82;;;8.88;;
37655;SDS011;23498;50.958;3.124;2022-10-31T06:04:14;14.13;;;8.68;;
37655;SDS011;23498;50.958;3.124;2022-10-31T06:06:40;13.43;;;9.20;;
37655;SDS011;23498;50.958;3.124;2022-10-31T06:09:06;11.90;;;8.30;;
37655;SDS011;23498;50.958;3.124;2022-10-31T06:11:32;12.90;;;8.88;;
37655;SDS011;23498;50.958;3.124;2022-10-31T06:13:58;13.07;;;8.40;;
37655;SDS011;23498;50.958;3.124;2022-10-31T06:16:24;12.52;;;8.27;;
37655;SDS011;23498;50.958;3.124;2022-10-31T06:18:50;13.15;;;7.90;;
37655;SDS011;23498;50.958;3.124;2022-10-31T06:21:16;12.15;;;7.70;;
37655;SDS011;23498;50.958;3.124;2022-10-31T06:23:42;12.35;;;7.95;;
37655;SDS011;23498;50.958;3.124;2022-10-31T06:26:08;11.65;;;7.43;;
37655;SDS011;23498;50.958;3.124;2022-10-31T06:28:34;16.08;;;7.85;;
37655;SDS011;23498;50.958;3.124;2022-10-31T06:31:00;13.98;;;8.70;;
37655;SDS011;23498;50.958;3.124;2022-10-31T06:33:26;13.95;;;8.00;;
37655;SDS011;23498;50.958;3.124;2022-10-31T06:35:52;13.25;;;7.90;;
37655;SDS011;23498;50.958;3.124;2022-10-31T06:38:18;11.40;;;7.35;;
37655;SDS011;23498;50.958;3.124;2022-10-31T06:40:44;11.95;;;7.57;;
37655;SDS011;23498;50.958;3.124;2022-10-31T06:43:10;13.68;;;8.88;;
37655;SDS011;23498;50.958;3.124;2022-10-31T06:45:36;16.08;;;10.10;;
37655;SDS011;23498;50.958;3.124;2022-10-31T06:48:02;15.00;;;9.30;;
37655;SDS011;23498;50.958;3.124;2022-10-31T06:50:28;13.38;;;8.93;;
37655;SDS011;23498;50.958;3.124;2022-10-31T06:52:58;14.60;;;8.13;;
37655;SDS011;23498;50.958;3.124;2022-10-31T06:55:25;15.55;;;9.48;;
37655;SDS011;23498;50.958;3.124;2022-10-31T06:57:51;14.93;;;9.45;;
37655;SDS011;23498;50.958;3.124;2022-10-31T07:00:18;17.42;;;10.95;;
37655;SDS011;23498;50.958;3.124;2022-10-31T07:02:51;18.50;;;10.82;;
37655;SDS011;23498;50.958;3.124;2022-10-31T07:05:18;17.08;;;11.23;;
37655;SDS011;23498;50.958;3.124;2022-10-31T07:07:43;16.15;;;11.13;;
37655;SDS011;23498;50.958;3.124;2022-10-31T07:10:10;15.65;;;9.80;;
37655;SDS011;23498;50.958;3.124;2022-10-31T07:12:36;17.42;;;11.00;;
37655;SDS011;23498;50.958;3.124;2022-10-31T07:15:02;18.40;;;11.07;;
37655;SDS011;23498;50.958;3.124;2022-10-31T07:17:28;18.80;;;11.23;;
37655;SDS011;23498;50.958;3.124;2022-10-31T07:19:54;18.85;;;11.52;;
37655;SDS011;23498;50.958;3.124;2022-10-31T07:22:20;19.88;;;11.68;;
37655;SDS011;23498;50.958;3.124;2022-10-31T07:24:45;21.92;;;12.00;;
37655;SDS011;23498;50.958;3.124;2022-10-31T07:27:11;18.40;;;12.13;;
37655;SDS011;23498;50.958;3.124;2022-10-31T07:29:37;23.25;;;13.35;;
37655;SDS011;23498;50.958;3.124;2022-10-31T07:32:03;19.15;;;12.23;;
37655;SDS011;23498;50.958;3.124;2022-10-31T07:34:29;20.17;;;14.88;;
37655;SDS011;23498;50.958;3.124;2022-10-31T07:36:55;20.15;;;13.90;;
37655;SDS011;23498;50.958;3.124;2022-10-31T07:39:21;22.48;;;13.35;;
37655;SDS011;23498;50.958;3.124;2022-10-31T07:41:47;20.73;;;14.10;;
37655;SDS011;23498;50.958;3.124;2022-10-31T07:44:13;18.88;;;12.02;;
37655;SDS011;23498;50.958;3.124;2022-10-31T07:46:39;21.55;;;13.52;;
37655;SDS011;23498;50.958;3.124;2022-10-31T07:49:05;18.90;;;13.02;;
37655;SDS011;23498;50.958;3.124;2022-10-31T07:51:31;21.95;;;13.50;;
37655;SDS011;23498;50.958;3.124;2022-10-31T07:53:57;20.67;;;13.95;;
37655;SDS011;23498;50.958;3.124;2022-10-31T07:56:23;22.90;;;13.13;;
37655;SDS011;23498;50.958;3.124;2022-10-31T07:58:49;21.88;;;12.75;;
37655;SDS011;23498;50.958;3.124;2022-10-31T08:01:15;23.58;;;14.73;;
37655;SDS011;23498;50.958;3.124;2022-10-31T08:03:41;24.65;;;15.80;;
37655;SDS011;23498;50.958;3.124;2022-10-31T08:06:07;25.20;;;15.20;;
37655;SDS011;23498;50.958;3.124;2022-10-31T08:08:33;29.15;;;15.50;;
37655;SDS011;23498;50.958;3.124;2022-10-31T08:10:59;30.02;;;17.00;;
37655;SDS011;23498;50.958;3.124;2022-10-31T08:13:25;27.95;;;15.18;;
37655;SDS011;23498;50.958;3.124;2022-10-31T08:15:51;28.90;;;16.08;;
37655;SDS011;23498;50.958;3.124;2022-10-31T08:18:18;28.75;;;15.43;;
37655;SDS011;23498;50.958;3.124;2022-10-31T08:20:48;28.00;;;16.40;;
37655;SDS011;23498;50.958;3.124;2022-10-31T08:23:14;30.08;;;17.42;;
37655;SDS011;23498;50.958;3.124;2022-10-31T08:25:40;29.55;;;17.60;;
37655;SDS011;23498;50.958;3.124;2022-10-31T08:28:08;28.83;;;17.48;;
37655;SDS011;23498;50.958;3.124;2022-10-31T08:30:35;25.90;;;17.10;;
37655;SDS011;23498;50.958;3.124;2022-10-31T08:33:05;27.30;;;17.17;;
37655;SDS011;23498;50.958;3.124;2022-10-31T08:35:32;26.13;;;16.75;;
37655;SDS011;23498;50.958;3.124;2022-10-31T08:37:58;25.15;;;15.57;;
37655;SDS011;23498;50.958;3.124;2022-10-31T08:40:25;28.02;;;17.33;;
37655;SDS011;23498;50.958;3.124;2022-10-31T08:45:23;29.20;;;15.70;;
37655;SDS011;23498;50.958;3.124;2022-10-31T08:47:49;24.00;;;13.57;;
37655;SDS011;23498;50.958;3.124;2022-10-31T08:50:15;21.98;;;15.00;;
37655;SDS011;23498;50.958;3.124;2022-10-31T08:52:41;25.95;;;14.65;;
37655;SDS011;23498;50.958;3.124;2022-10-31T08:55:07;25.05;;;14.20;;
37655;SDS011;23498;50.958;3.124;2022-10-31T08:57:33;23.30;;;14.57;;
37655;SDS011;23498;50.958;3.124;2022-10-31T09:00:00;26.13;;;14.13;;
37655;SDS011;23498;50.958;3.124;2022-10-31T09:02:26;18.63;;;11.82;;
37655;SDS011;23498;50.958;3.124;2022-10-31T09:04:52;20.38;;;12.32;;
37655;SDS011;23498;50.958;3.124;2022-10-31T09:07:18;21.38;;;12.48;;
37655;SDS011;23498;50.958;3.124;2022-10-31T09:09:44;18.05;;;12.43;;
37655;SDS011;23498;50.958;3.124;2022-10-31T09:12:10;19.10;;;12.77;;
37655;SDS011;23498;50.958;3.124;2022-10-31T09:14:36;21.05;;;12.00;;
37655;SDS011;23498;50.958;3.124;2022-10-31T09:17:01;19.48;;;11.65;;
37655;SDS011;23498;50.958;3.124;2022-10-31T09:19:27;20.27;;;11.63;;
37655;SDS011;23498;50.958;3.124;2022-10-31T09:21:53;20.05;;;11.35;;
37655;SDS011;23498;50.958;3.124;2022-10-31T09:24:20;18.42;;;11.35;;
37655;SDS011;23498;50.958;3.124;2022-10-31T09:26:46;17.77;;;11.00;;
37655;SDS011;23498;50.958;3.124;2022-10-31T09:29:12;17.33;;;11.27;;
37655;SDS011;23498;50.958;3.124;2022-10-31T09:31:38;18.33;;;10.15;;
37655;SDS011;23498;50.958;3.124;2022-10-31T09:34:04;16.52;;;10.10;;
37655;SDS011;23498;50.958;3.124;2022-10-31T09:36:30;17.65;;;10.80;;
37655;SDS011;23498;50.958;3.124;2022-10-31T09:38:56;14.82;;;10.60;;
37655;SDS011;23498;50.958;3.124;2022-10-31T09:44:21;15.13;;;9.10;;
37655;SDS011;23498;50.958;3.124;2022-10-31T09:51:50;15.18;;;9.52;;
37655;SDS011;23498;50.958;3.124;2022-10-31T09:54:18;17.27;;;9.40;;
37655;SDS011;23498;50.958;3.124;2022-10-31T09:56:45;15.55;;;9.18;;
37655;SDS011;23498;50.958;3.124;2022-10-31T09:59:24;14.63;;;9.55;;
37655;SDS011;23498;50.958;3.124;2022-10-31T10:01:53;14.70;;;9.82;;
37655;SDS011;23498;50.958;3.124;2022-10-31T10:06:58;15.90;;;9.25;;
37655;SDS011;23498;50.958;3.124;2022-10-31T10:09:26;16.17;;;9.43;;
37655;SDS011;23498;50.958;3.124;2022-10-31T10:17:34;14.70;;;9.27;;
37655;SDS011;23498;50.958;3.124;2022-10-31T10:19:34;17.52;;;10.35;;
37655;SDS011;23498;50.958;3.124;2022-10-31T10:25:41;16.80;;;9.65;;
37655;SDS011;23498;50.958;3.124;2022-10-31T10:30:03;14.38;;;9.07;;
37655;SDS011;23498;50.958;3.124;2022-10-31T10:32:39;13.75;;;9.45;;
37655;SDS011;23498;50.958;3.124;2022-10-31T10:37:39;14.90;;;9.63;;
37655;SDS011;23498;50.958;3.124;2022-10-31T10:40:11;16.67;;;10.27;;
37655;SDS011;23498;50.958;3.124;2022-10-31T10:42:37;16.52;;;9.15;;
37655;SDS011;23498;50.958;3.124;2022-10-31T10:45:22;14.80;;;9.68;;
37655;SDS011;23498;50.958;3.124;2022-10-31T10:48:10;13.55;;;10.02;;
37655;SDS011;23498;50.958;3.124;2022-10-31T10:50:41;15.65;;;10.65;;
37655;SDS011;23498;50.958;3.124;2022-10-31T10:55:56;14.68;;;10.05;;
37655;SDS011;23498;50.958;3.124;2022-10-31T10:58:24;16.95;;;10.55;;
37655;SDS011;23498;50.958;3.124;2022-10-31T11:00:50;15.18;;;9.80;;
37655;SDS011;23498;50.958;3.124;2022-10-31T11:03:18;15.15;;;9.43;;
37655;SDS011;23498;50.958;3.124;2022-10-31T11:05:51;12.88;;;9.02;;
37655;SDS011;23498;50.958;3.124;2022-10-31T11:08:24;14.95;;;10.25;;
37655;SDS011;23498;50.958;3.124;2022-10-31T11:10:58;13.43;;;8.60;;
37655;SDS011;23498;50.958;3.124;2022-10-31T11:13:25;15.93;;;8.73;;
37655;SDS011;23498;50.958;3.124;2022-10-31T11:18:25;13.70;;;8.73;;
37655;SDS011;23498;50.958;3.124;2022-10-31T11:20:52;12.82;;;8.10;;
37655;SDS011;23498;50.958;3.124;2022-10-31T11:23:19;13.45;;;8.77;;
37655;SDS011;23498;50.958;3.124;2022-10-31T11:28:17;14.60;;;9.10;;
37655;SDS011;23498;50.958;3.124;2022-10-31T11:30:46;14.43;;;9.05;;
37655;SDS011;23498;50.958;3.124;2022-10-31T11:33:16;15.75;;;8.60;;
37655;SDS011;23498;50.958;3.124;2022-10-31T11:35:43;13.25;;;8.77;;
37655;SDS011;23498;50.958;3.124;2022-10-31T11:38:12;13.63;;;8.75;;
37655;SDS011;23498;50.958;3.124;2022-10-31T11:43:12;10.75;;;6.97;;
37655;SDS011;23498;50.958;3.124;2022-10-31T11:45:41;11.65;;;6.97;;
37655;SDS011;23498;50.958;3.124;2022-10-31T11:48:18;11.02;;;7.07;;
37655;SDS011;23498;50.958;3.124;2022-10-31T11:50:52;13.13;;;5.78;;
37655;SDS011;23498;50.958;3.124;2022-10-31T11:53:29;7.30;;;5.40;;
37655;SDS011;23498;50.958;3.124;2022-10-31T11:56:04;11.00;;;5.53;;
37655;SDS011;23498;50.958;3.124;2022-10-31T11:58:30;10.32;;;5.40;;
37655;SDS011;23498;50.958;3.124;2022-10-31T12:00:57;9.50;;;5.45;;
37655;SDS011;23498;50.958;3.124;2022-10-31T12:06:12;8.20;;;4.90;;
37655;SDS011;23498;50.958;3.124;2022-10-31T12:08:37;8.35;;;5.10;;
37655;SDS011;23498;50.958;3.124;2022-10-31T12:11:10;9.57;;;5.28;;
37655;SDS011;23498;50.958;3.124;2022-10-31T12:13:38;9.57;;;5.30;;
37655;SDS011;23498;50.958;3.124;2022-10-31T12:16:12;10.85;;;5.20;;
37655;SDS011;23498;50.958;3.124;2022-10-31T12:19:00;8.85;;;5.18;;
37655;SDS011;23498;50.958;3.124;2022-10-31T12:24:23;8.73;;;5.35;;
37655;SDS011;23498;50.958;3.124;2022-10-31T12:32:29;9.75;;;5.88;;
37655;SDS011;23498;50.958;3.124;2022-10-31T12:37:30;15.60;;;5.90;;
37655;SDS011;23498;50.958;3.124;2022-10-31T12:40:21;10.65;;;6.05;;
37655;SDS011;23498;50.958;3.124;2022-10-31T12:48:03;10.80;;;6.20;;
37655;SDS011;23498;50.958;3.124;2022-10-31T12:55:51;14.73;;;8.18;;
37655;SDS011;23498;50.958;3.124;2022-10-31T12:58:21;14.75;;;8.90;;
37655;SDS011;23498;50.958;3.124;2022-10-31T13:00:48;12.57;;;8.55;;
37655;SDS011;23498;50.958;3.124;2022-10-31T13:03:29;28.13;;;18.23;;
37655;SDS011;23498;50.958;3.124;2022-10-31T13:05:57;17.25;;;10.77;;
37655;SDS011;23498;50.958;3.124;2022-10-31T13:08:47;14.02;;;9.38;;
37655;SDS011;23498;50.958;3.124;2022-10-31T13:11:23;15.10;;;9.95;;
37655;SDS011;23498;50.958;3.124;2022-10-31T13:16:40;16.40;;;9.40;;
37655;SDS011;23498;50.958;3.124;2022-10-31T13:24:15;15.63;;;9.88;;
37655;SDS011;23498;50.958;3.124;2022-10-31T13:26:43;16.98;;;10.00;;
37655;SDS011;23498;50.958;3.124;2022-10-31T13:29:27;20.77;;;9.40;;
37655;SDS011;23498;50.958;3.124;2022-10-31T13:31:55;24.52;;;10.45;;
37655;SDS011;23498;50.958;3.124;2022-10-31T13:39:33;17.33;;;10.10;;
37655;SDS011;23498;50.958;3.124;2022-10-31T13:44:36;18.30;;;11.63;;
37655;SDS011;23498;50.958;3.124;2022-10-31T13:47:21;15.30;;;10.63;;
37655;SDS011;23498;50.958;3.124;2022-10-31T13:49:48;16.88;;;9.63;;
37655;SDS011;23498;50.958;3.124;2022-10-31T13:52:15;20.90;;;10.55;;
37655;SDS011;23498;50.958;3.124;2022-10-31T13:54:43;14.43;;;9.30;;
37655;SDS011;23498;50.958;3.124;2022-10-31T13:59:58;14.60;;;9.05;;
37655;SDS011;23498;50.958;3.124;2022-10-31T14:02:26;15.32;;;9.57;;
37655;SDS011;23498;50.958;3.124;2022-10-31T14:05:03;15.13;;;9.05;;
37655;SDS011;23498;50.958;3.124;2022-10-31T14:07:29;17.30;;;9.13;;
37655;SDS011;23498;50.958;3.124;2022-10-31T14:09:57;14.32;;;9.00;;
37655;SDS011;23498;50.958;3.124;2022-10-31T14:14:51;19.10;;;9.70;;
37655;SDS011;23498;50.958;3.124;2022-10-31T14:17:19;18.02;;;8.75;;
37655;SDS011;23498;50.958;3.124;2022-10-31T14:22:31;18.30;;;9.63;;
37655;SDS011;23498;50.958;3.124;2022-10-31T14:24:57;19.15;;;9.60;;
37655;SDS011;23498;50.958;3.124;2022-10-31T14:29:53;16.33;;;9.60;;
37655;SDS011;23498;50.958;3.124;2022-10-31T14:34:57;17.70;;;9.80;;
37655;SDS011;23498;50.958;3.124;2022-10-31T14:42:44;17.40;;;9.23;;
37655;SDS011;23498;50.958;3.124;2022-10-31T14:52:39;15.60;;;9.90;;
37655;SDS011;23498;50.958;3.124;2022-10-31T14:55:07;18.38;;;9.77;;
37655;SDS011;23498;50.958;3.124;2022-10-31T14:57:36;17.58;;;11.57;;
37655;SDS011;23498;50.958;3.124;2022-10-31T15:00:05;23.63;;;11.40;;
37655;SDS011;23498;50.958;3.124;2022-10-31T15:02:33;16.50;;;11.32;;
37655;SDS011;23498;50.958;3.124;2022-10-31T15:05:03;21.10;;;12.18;;
37655;SDS011;23498;50.958;3.124;2022-10-31T15:07:32;21.63;;;12.57;;
37655;SDS011;23498;50.958;3.124;2022-10-31T15:10:04;22.23;;;11.73;;
37655;SDS011;23498;50.958;3.124;2022-10-31T15:12:31;20.45;;;12.48;;
37655;SDS011;23498;50.958;3.124;2022-10-31T15:14:57;20.80;;;12.13;;
37655;SDS011;23498;50.958;3.124;2022-10-31T15:17:24;22.42;;;13.15;;
37655;SDS011;23498;50.958;3.124;2022-10-31T15:19:51;21.15;;;12.82;;
37655;SDS011;23498;50.958;3.124;2022-10-31T15:22:18;22.88;;;13.40;;
37655;SDS011;23498;50.958;3.124;2022-10-31T15:24:44;24.65;;;13.07;;
37655;SDS011;23498;50.958;3.124;2022-10-31T15:27:15;21.08;;;13.02;;
37655;SDS011;23498;50.958;3.124;2022-10-31T15:29:52;23.42;;;13.52;;
37655;SDS011;23498;50.958;3.124;2022-10-31T15:32:20;22.17;;;13.05;;
37655;SDS011;23498;50.958;3.124;2022-10-31T15:34:47;21.13;;;12.75;;
37655;SDS011;23498;50.958;3.124;2022-10-31T15:37:14;20.52;;;12.70;;
37655;SDS011;23498;50.958;3.124;2022-10-31T15:39:41;22.77;;;13.77;;
37655;SDS011;23498;50.958;3.124;2022-10-31T15:44:42;21.75;;;12.98;;
37655;SDS011;23498;50.958;3.124;2022-10-31T15:47:21;20.48;;;12.85;;
37655;SDS011;23498;50.958;3.124;2022-10-31T15:49:53;19.70;;;13.82;;
37655;SDS011;23498;50.958;3.124;2022-10-31T15:54:50;24.17;;;14.85;;
37655;SDS011;23498;50.958;3.124;2022-10-31T15:57:16;23.27;;;14.40;;
37655;SDS011;23498;50.958;3.124;2022-10-31T15:59:50;27.65;;;14.30;;
37655;SDS011;23498;50.958;3.124;2022-10-31T16:02:24;22.08;;;13.73;;
37655;SDS011;23498;50.958;3.124;2022-10-31T16:04:59;25.48;;;15.38;;
37655;SDS011;23498;50.958;3.124;2022-10-31T16:07:29;27.13;;;16.15;;
37655;SDS011;23498;50.958;3.124;2022-10-31T16:10:23;27.23;;;17.00;;
37655;SDS011;23498;50.958;3.124;2022-10-31T16:12:50;36.58;;;21.67;;
37655;SDS011;23498;50.958;3.124;2022-10-31T16:15:16;30.73;;;20.75;;
37655;SDS011;23498;50.958;3.124;2022-10-31T16:17:52;25.77;;;16.80;;
37655;SDS011;23498;50.958;3.124;2022-10-31T16:20:20;25.23;;;15.25;;
37655;SDS011;23498;50.958;3.124;2022-10-31T16:22:48;25.13;;;14.70;;
37655;SDS011;23498;50.958;3.124;2022-10-31T16:25:25;28.60;;;16.10;;
37655;SDS011;23498;50.958;3.124;2022-10-31T16:27:52;25.38;;;14.77;;
37655;SDS011;23498;50.958;3.124;2022-10-31T16:30:38;27.52;;;16.50;;
37655;SDS011;23498;50.958;3.124;2022-10-31T16:33:05;33.90;;;17.85;;
37655;SDS011;23498;50.958;3.124;2022-10-31T16:35:32;30.13;;;16.95;;
37655;SDS011;23498;50.958;3.124;2022-10-31T16:37:59;27.58;;;16.88;;
37655;SDS011;23498;50.958;3.124;2022-10-31T16:40:25;28.52;;;16.52;;
37655;SDS011;23498;50.958;3.124;2022-10-31T16:42:51;28.10;;;17.15;;
37655;SDS011;23498;50.958;3.124;2022-10-31T16:45:18;25.02;;;15.43;;
37655;SDS011;23498;50.958;3.124;2022-10-31T16:47:45;25.83;;;16.05;;
37655;SDS011;23498;50.958;3.124;2022-10-31T16:50:15;26.70;;;14.15;;
37655;SDS011;23498;50.958;3.124;2022-10-31T16:52:41;24.67;;;14.75;;
37655;SDS011;23498;50.958;3.124;2022-10-31T16:55:10;25.65;;;14.77;;